sensor_id;sensor_type;location;lat;lon;timestamp;P1;durP1;ratioP1;P2;durP2;ratioP2
18259;SDS011;9256;52.236;5.712;2024-02-26T00:00:44;15.50;;;7.63;;
18259;SDS011;9256;52.236;5.712;2024-02-26T00:03:12;16.00;;;8.00;;
18259;SDS011;9256;52.236;5.712;2024-02-26T00:05:39;15.03;;;7.40;;
18259;SDS011;9256;52.236;5.712;2024-02-26T00:08:07;16.10;;;7.87;;
18259;SDS011;9256;52.236;5.712;2024-02-26T00:10:34;17.87;;;8.13;;
18259;SDS011;9256;52.236;5.712;2024-02-26T00:13:01;16.73;;;8.37;;
18259;SDS011;9256;52.236;5.712;2024-02-26T00:15:28;15.97;;;7.90;;
18259;SDS011;9256;52.236;5.712;2024-02-26T00:17:56;17.03;;;8.20;;
18259;SDS011;9256;52.236;5.712;2024-02-26T00:20:23;17.83;;;8.50;;
18259;SDS011;9256;52.236;5.712;2024-02-26T00:22:50;15.93;;;7.67;;
18259;SDS011;9256;52.236;5.712;2024-02-26T00:25:17;19.00;;;8.07;;
18259;SDS011;9256;52.236;5.712;2024-02-26T00:27:44;20.70;;;10.80;;
18259;SDS011;9256;52.236;5.712;2024-02-26T00:30:11;17.33;;;8.73;;
18259;SDS011;9256;52.236;5.712;2024-02-26T00:32:38;18.13;;;11.07;;
18259;SDS011;9256;52.236;5.712;2024-02-26T00:35:07;17.03;;;9.17;;
18259;SDS011;9256;52.236;5.712;2024-02-26T00:37:35;16.03;;;8.20;;
18259;SDS011;9256;52.236;5.712;2024-02-26T00:40:02;17.00;;;8.20;;
18259;SDS011;9256;52.236;5.712;2024-02-26T00:42:30;19.75;;;10.35;;
18259;SDS011;9256;52.236;5.712;2024-02-26T00:44:57;16.70;;;8.70;;
18259;SDS011;9256;52.236;5.712;2024-02-26T00:47:25;18.00;;;8.37;;
18259;SDS011;9256;52.236;5.712;2024-02-26T00:49:52;16.40;;;7.93;;
18259;SDS011;9256;52.236;5.712;2024-02-26T00:52:20;17.80;;;7.83;;
18259;SDS011;9256;52.236;5.712;2024-02-26T00:54:47;15.73;;;7.63;;
18259;SDS011;9256;52.236;5.712;2024-02-26T00:57:14;20.45;;;10.48;;
18259;SDS011;9256;52.236;5.712;2024-02-26T00:59:41;18.17;;;8.47;;
18259;SDS011;9256;52.236;5.712;2024-02-26T01:02:08;15.93;;;8.23;;
18259;SDS011;9256;52.236;5.712;2024-02-26T01:04:35;16.37;;;7.63;;
18259;SDS011;9256;52.236;5.712;2024-02-26T01:07:02;19.53;;;7.70;;
18259;SDS011;9256;52.236;5.712;2024-02-26T01:09:30;15.77;;;7.73;;
18259;SDS011;9256;52.236;5.712;2024-02-26T01:11:57;16.53;;;7.70;;
18259;SDS011;9256;52.236;5.712;2024-02-26T01:14:24;16.17;;;7.57;;
18259;SDS011;9256;52.236;5.712;2024-02-26T01:16:51;18.70;;;8.03;;
18259;SDS011;9256;52.236;5.712;2024-02-26T01:19:18;18.93;;;7.80;;
18259;SDS011;9256;52.236;5.712;2024-02-26T01:21:45;17.73;;;8.27;;
18259;SDS011;9256;52.236;5.712;2024-02-26T01:24:12;18.67;;;8.37;;
18259;SDS011;9256;52.236;5.712;2024-02-26T01:26:40;17.73;;;8.07;;
18259;SDS011;9256;52.236;5.712;2024-02-26T01:29:07;17.30;;;7.67;;
18259;SDS011;9256;52.236;5.712;2024-02-26T01:31:34;19.87;;;8.53;;
18259;SDS011;9256;52.236;5.712;2024-02-26T01:34:01;17.83;;;8.27;;
18259;SDS011;9256;52.236;5.712;2024-02-26T01:36:28;19.57;;;8.63;;
18259;SDS011;9256;52.236;5.712;2024-02-26T01:38:55;19.07;;;8.73;;
18259;SDS011;9256;52.236;5.712;2024-02-26T01:41:22;22.77;;;8.90;;
18259;SDS011;9256;52.236;5.712;2024-02-26T01:43:50;22.40;;;9.30;;
18259;SDS011;9256;52.236;5.712;2024-02-26T01:46:17;23.47;;;9.70;;
18259;SDS011;9256;52.236;5.712;2024-02-26T01:48:44;23.43;;;9.57;;
18259;SDS011;9256;52.236;5.712;2024-02-26T01:51:15;24.40;;;9.33;;
18259;SDS011;9256;52.236;5.712;2024-02-26T01:53:43;24.33;;;9.53;;
18259;SDS011;9256;52.236;5.712;2024-02-26T01:56:10;22.53;;;9.80;;
18259;SDS011;9256;52.236;5.712;2024-02-26T01:58:38;23.63;;;9.63;;
18259;SDS011;9256;52.236;5.712;2024-02-26T02:01:06;23.10;;;9.20;;
18259;SDS011;9256;52.236;5.712;2024-02-26T02:03:34;25.13;;;9.83;;
18259;SDS011;9256;52.236;5.712;2024-02-26T02:06:03;24.40;;;9.80;;
18259;SDS011;9256;52.236;5.712;2024-02-26T02:08:30;24.70;;;9.77;;
18259;SDS011;9256;52.236;5.712;2024-02-26T02:11:00;22.73;;;9.07;;
18259;SDS011;9256;52.236;5.712;2024-02-26T02:13:27;23.40;;;9.60;;
18259;SDS011;9256;52.236;5.712;2024-02-26T02:15:54;22.73;;;10.32;;
18259;SDS011;9256;52.236;5.712;2024-02-26T02:18:22;24.30;;;10.10;;
18259;SDS011;9256;52.236;5.712;2024-02-26T02:20:50;24.33;;;10.13;;
18259;SDS011;9256;52.236;5.712;2024-02-26T02:23:21;23.60;;;9.70;;
18259;SDS011;9256;52.236;5.712;2024-02-26T02:25:48;25.30;;;9.93;;
18259;SDS011;9256;52.236;5.712;2024-02-26T02:28:15;25.20;;;9.97;;
18259;SDS011;9256;52.236;5.712;2024-02-26T02:30:42;24.53;;;9.67;;
18259;SDS011;9256;52.236;5.712;2024-02-26T02:33:09;26.33;;;10.10;;
18259;SDS011;9256;52.236;5.712;2024-02-26T02:35:37;22.40;;;9.70;;
18259;SDS011;9256;52.236;5.712;2024-02-26T02:38:05;25.47;;;10.33;;
18259;SDS011;9256;52.236;5.712;2024-02-26T02:40:32;25.47;;;10.20;;
18259;SDS011;9256;52.236;5.712;2024-02-26T02:42:59;23.27;;;9.87;;
18259;SDS011;9256;52.236;5.712;2024-02-26T02:45:27;26.50;;;10.23;;
18259;SDS011;9256;52.236;5.712;2024-02-26T02:47:54;23.70;;;10.07;;
18259;SDS011;9256;52.236;5.712;2024-02-26T02:50:20;22.90;;;9.63;;
18259;SDS011;9256;52.236;5.712;2024-02-26T02:52:47;24.30;;;9.90;;
18259;SDS011;9256;52.236;5.712;2024-02-26T02:55:16;26.92;;;13.48;;
18259;SDS011;9256;52.236;5.712;2024-02-26T02:57:44;23.47;;;10.17;;
18259;SDS011;9256;52.236;5.712;2024-02-26T03:00:11;27.13;;;10.20;;
18259;SDS011;9256;52.236;5.712;2024-02-26T03:02:38;22.97;;;9.67;;
18259;SDS011;9256;52.236;5.712;2024-02-26T03:05:05;21.00;;;9.30;;
18259;SDS011;9256;52.236;5.712;2024-02-26T03:07:33;24.37;;;9.63;;
18259;SDS011;9256;52.236;5.712;2024-02-26T03:10:00;23.23;;;9.60;;
18259;SDS011;9256;52.236;5.712;2024-02-26T03:12:29;24.43;;;10.00;;
18259;SDS011;9256;52.236;5.712;2024-02-26T03:14:56;24.20;;;9.93;;
18259;SDS011;9256;52.236;5.712;2024-02-26T03:17:23;21.93;;;9.57;;
18259;SDS011;9256;52.236;5.712;2024-02-26T03:19:50;25.37;;;13.00;;
18259;SDS011;9256;52.236;5.712;2024-02-26T03:22:19;22.17;;;10.43;;
18259;SDS011;9256;52.236;5.712;2024-02-26T03:24:46;23.50;;;9.97;;
18259;SDS011;9256;52.236;5.712;2024-02-26T03:27:13;23.80;;;9.80;;
18259;SDS011;9256;52.236;5.712;2024-02-26T03:29:41;20.93;;;9.33;;
18259;SDS011;9256;52.236;5.712;2024-02-26T03:32:08;22.70;;;9.37;;
18259;SDS011;9256;52.236;5.712;2024-02-26T03:34:35;24.67;;;9.60;;
18259;SDS011;9256;52.236;5.712;2024-02-26T03:37:04;24.98;;;12.50;;
18259;SDS011;9256;52.236;5.712;2024-02-26T03:39:31;23.90;;;10.17;;
18259;SDS011;9256;52.236;5.712;2024-02-26T03:41:58;23.23;;;9.57;;
18259;SDS011;9256;52.236;5.712;2024-02-26T03:44:25;22.30;;;9.13;;
18259;SDS011;9256;52.236;5.712;2024-02-26T03:46:53;24.70;;;9.57;;
18259;SDS011;9256;52.236;5.712;2024-02-26T03:49:20;25.83;;;9.23;;
18259;SDS011;9256;52.236;5.712;2024-02-26T03:51:48;24.15;;;11.75;;
18259;SDS011;9256;52.236;5.712;2024-02-26T03:54:15;21.87;;;9.57;;
18259;SDS011;9256;52.236;5.712;2024-02-26T03:56:41;21.50;;;9.17;;
18259;SDS011;9256;52.236;5.712;2024-02-26T03:59:08;20.33;;;9.50;;
18259;SDS011;9256;52.236;5.712;2024-02-26T04:01:35;23.83;;;9.67;;
18259;SDS011;9256;52.236;5.712;2024-02-26T04:04:04;22.87;;;9.33;;
18259;SDS011;9256;52.236;5.712;2024-02-26T04:06:30;23.03;;;9.43;;
18259;SDS011;9256;52.236;5.712;2024-02-26T04:08:57;20.80;;;9.50;;
18259;SDS011;9256;52.236;5.712;2024-02-26T04:11:24;22.23;;;9.40;;
18259;SDS011;9256;52.236;5.712;2024-02-26T04:13:51;22.33;;;9.60;;
18259;SDS011;9256;52.236;5.712;2024-02-26T04:16:18;22.63;;;9.57;;
18259;SDS011;9256;52.236;5.712;2024-02-26T04:18:45;24.67;;;10.00;;
18259;SDS011;9256;52.236;5.712;2024-02-26T04:21:13;25.00;;;10.50;;
18259;SDS011;9256;52.236;5.712;2024-02-26T04:23:40;27.20;;;10.67;;
18259;SDS011;9256;52.236;5.712;2024-02-26T04:26:07;23.67;;;10.30;;
18259;SDS011;9256;52.236;5.712;2024-02-26T04:28:34;24.73;;;10.57;;
18259;SDS011;9256;52.236;5.712;2024-02-26T04:31:01;25.57;;;10.50;;
18259;SDS011;9256;52.236;5.712;2024-02-26T04:33:28;28.30;;;11.17;;
18259;SDS011;9256;52.236;5.712;2024-02-26T04:35:55;28.13;;;11.63;;
18259;SDS011;9256;52.236;5.712;2024-02-26T04:38:23;30.30;;;11.57;;
18259;SDS011;9256;52.236;5.712;2024-02-26T04:40:50;30.00;;;11.37;;
18259;SDS011;9256;52.236;5.712;2024-02-26T04:43:17;27.83;;;11.27;;
18259;SDS011;9256;52.236;5.712;2024-02-26T04:45:44;26.90;;;11.53;;
18259;SDS011;9256;52.236;5.712;2024-02-26T04:48:11;29.93;;;11.67;;
18259;SDS011;9256;52.236;5.712;2024-02-26T04:50:38;27.50;;;11.10;;
18259;SDS011;9256;52.236;5.712;2024-02-26T04:53:05;27.73;;;11.17;;
18259;SDS011;9256;52.236;5.712;2024-02-26T04:55:33;27.37;;;11.90;;
18259;SDS011;9256;52.236;5.712;2024-02-26T04:58:00;26.33;;;11.30;;
18259;SDS011;9256;52.236;5.712;2024-02-26T05:00:27;25.37;;;11.27;;
18259;SDS011;9256;52.236;5.712;2024-02-26T05:02:54;27.93;;;11.57;;
18259;SDS011;9256;52.236;5.712;2024-02-26T05:05:21;27.40;;;11.40;;
18259;SDS011;9256;52.236;5.712;2024-02-26T05:07:48;26.47;;;11.20;;
18259;SDS011;9256;52.236;5.712;2024-02-26T05:10:15;30.43;;;11.77;;
18259;SDS011;9256;52.236;5.712;2024-02-26T05:12:43;30.40;;;12.03;;
18259;SDS011;9256;52.236;5.712;2024-02-26T05:15:10;30.73;;;11.40;;
18259;SDS011;9256;52.236;5.712;2024-02-26T05:17:43;28.57;;;11.77;;
18259;SDS011;9256;52.236;5.712;2024-02-26T05:20:12;27.70;;;11.40;;
18259;SDS011;9256;52.236;5.712;2024-02-26T05:22:42;29.70;;;11.13;;
18259;SDS011;9256;52.236;5.712;2024-02-26T05:25:09;27.73;;;11.33;;
18259;SDS011;9256;52.236;5.712;2024-02-26T05:27:36;31.45;;;15.60;;
18259;SDS011;9256;52.236;5.712;2024-02-26T05:30:05;27.53;;;12.20;;
18259;SDS011;9256;52.236;5.712;2024-02-26T05:32:33;30.47;;;12.17;;
18259;SDS011;9256;52.236;5.712;2024-02-26T05:35:00;31.20;;;11.93;;
18259;SDS011;9256;52.236;5.712;2024-02-26T05:37:30;28.77;;;11.50;;
18259;SDS011;9256;52.236;5.712;2024-02-26T05:39:56;29.87;;;11.87;;
18259;SDS011;9256;52.236;5.712;2024-02-26T05:42:23;27.93;;;10.93;;
18259;SDS011;9256;52.236;5.712;2024-02-26T05:44:50;28.73;;;10.93;;
18259;SDS011;9256;52.236;5.712;2024-02-26T05:47:18;29.23;;;10.97;;
18259;SDS011;9256;52.236;5.712;2024-02-26T05:49:48;31.67;;;11.80;;
18259;SDS011;9256;52.236;5.712;2024-02-26T05:52:15;31.83;;;11.70;;
18259;SDS011;9256;52.236;5.712;2024-02-26T05:54:42;29.50;;;11.13;;
18259;SDS011;9256;52.236;5.712;2024-02-26T05:57:09;30.30;;;11.83;;
18259;SDS011;9256;52.236;5.712;2024-02-26T05:59:36;34.53;;;12.40;;
18259;SDS011;9256;52.236;5.712;2024-02-26T06:02:03;33.07;;;11.67;;
18259;SDS011;9256;52.236;5.712;2024-02-26T06:04:32;34.93;;;12.00;;
18259;SDS011;9256;52.236;5.712;2024-02-26T06:06:58;32.57;;;12.00;;
18259;SDS011;9256;52.236;5.712;2024-02-26T06:09:25;34.57;;;12.20;;
18259;SDS011;9256;52.236;5.712;2024-02-26T06:11:52;34.30;;;12.53;;
18259;SDS011;9256;52.236;5.712;2024-02-26T06:14:19;38.97;;;13.10;;
18259;SDS011;9256;52.236;5.712;2024-02-26T06:16:46;32.77;;;11.60;;
18259;SDS011;9256;52.236;5.712;2024-02-26T06:19:13;34.97;;;12.73;;
18259;SDS011;9256;52.236;5.712;2024-02-26T06:21:41;38.67;;;12.57;;
18259;SDS011;9256;52.236;5.712;2024-02-26T06:24:08;37.10;;;12.13;;
18259;SDS011;9256;52.236;5.712;2024-02-26T06:26:35;34.13;;;12.30;;
18259;SDS011;9256;52.236;5.712;2024-02-26T06:29:02;38.40;;;13.53;;
18259;SDS011;9256;52.236;5.712;2024-02-26T06:31:29;38.50;;;13.20;;
18259;SDS011;9256;52.236;5.712;2024-02-26T06:33:56;41.43;;;13.53;;
18259;SDS011;9256;52.236;5.712;2024-02-26T06:36:23;35.00;;;12.30;;
18259;SDS011;9256;52.236;5.712;2024-02-26T06:38:52;38.87;;;12.87;;
18259;SDS011;9256;52.236;5.712;2024-02-26T06:41:19;37.00;;;12.73;;
18259;SDS011;9256;52.236;5.712;2024-02-26T06:43:51;41.90;;;13.97;;
18259;SDS011;9256;52.236;5.712;2024-02-26T06:46:18;40.67;;;13.67;;
18259;SDS011;9256;52.236;5.712;2024-02-26T06:48:45;44.37;;;14.53;;
18259;SDS011;9256;52.236;5.712;2024-02-26T06:51:14;45.77;;;14.73;;
18259;SDS011;9256;52.236;5.712;2024-02-26T06:53:41;48.97;;;14.57;;
18259;SDS011;9256;52.236;5.712;2024-02-26T06:56:09;44.17;;;14.17;;
18259;SDS011;9256;52.236;5.712;2024-02-26T06:58:36;46.57;;;14.50;;
18259;SDS011;9256;52.236;5.712;2024-02-26T07:01:03;45.30;;;14.40;;
18259;SDS011;9256;52.236;5.712;2024-02-26T07:03:30;48.20;;;14.97;;
18259;SDS011;9256;52.236;5.712;2024-02-26T07:05:58;49.57;;;15.20;;
18259;SDS011;9256;52.236;5.712;2024-02-26T07:08:24;46.87;;;14.60;;
18259;SDS011;9256;52.236;5.712;2024-02-26T07:10:51;52.47;;;15.67;;
18259;SDS011;9256;52.236;5.712;2024-02-26T07:13:20;51.57;;;15.40;;
18259;SDS011;9256;52.236;5.712;2024-02-26T07:15:46;53.10;;;15.43;;
18259;SDS011;9256;52.236;5.712;2024-02-26T07:18:13;53.27;;;16.20;;
18259;SDS011;9256;52.236;5.712;2024-02-26T07:20:40;53.37;;;16.33;;
18259;SDS011;9256;52.236;5.712;2024-02-26T07:23:07;49.00;;;16.07;;
18259;SDS011;9256;52.236;5.712;2024-02-26T07:25:34;55.87;;;16.07;;
18259;SDS011;9256;52.236;5.712;2024-02-26T07:28:01;53.93;;;16.63;;
18259;SDS011;9256;52.236;5.712;2024-02-26T07:30:30;52.67;;;16.27;;
18259;SDS011;9256;52.236;5.712;2024-02-26T07:32:57;50.53;;;16.17;;
18259;SDS011;9256;52.236;5.712;2024-02-26T07:35:23;49.67;;;16.07;;
18259;SDS011;9256;52.236;5.712;2024-02-26T07:37:55;53.67;;;17.03;;
18259;SDS011;9256;52.236;5.712;2024-02-26T07:40:22;54.53;;;16.27;;
18259;SDS011;9256;52.236;5.712;2024-02-26T07:42:49;46.50;;;15.50;;
18259;SDS011;9256;52.236;5.712;2024-02-26T07:45:16;46.97;;;16.00;;
18259;SDS011;9256;52.236;5.712;2024-02-26T07:47:46;47.93;;;15.53;;
18259;SDS011;9256;52.236;5.712;2024-02-26T07:50:13;49.40;;;16.20;;
18259;SDS011;9256;52.236;5.712;2024-02-26T07:52:40;47.93;;;15.67;;
18259;SDS011;9256;52.236;5.712;2024-02-26T07:55:07;42.57;;;14.27;;
18259;SDS011;9256;52.236;5.712;2024-02-26T07:57:34;43.33;;;14.83;;
18259;SDS011;9256;52.236;5.712;2024-02-26T08:00:02;42.97;;;14.13;;
18259;SDS011;9256;52.236;5.712;2024-02-26T08:02:32;44.37;;;14.93;;
18259;SDS011;9256;52.236;5.712;2024-02-26T08:05:01;41.23;;;14.27;;
18259;SDS011;9256;52.236;5.712;2024-02-26T08:07:28;40.50;;;14.20;;
18259;SDS011;9256;52.236;5.712;2024-02-26T08:09:55;41.00;;;13.67;;
18259;SDS011;9256;52.236;5.712;2024-02-26T08:12:21;39.17;;;12.67;;
18259;SDS011;9256;52.236;5.712;2024-02-26T08:14:48;42.75;;;16.90;;
18259;SDS011;9256;52.236;5.712;2024-02-26T08:17:15;31.73;;;13.17;;
18259;SDS011;9256;52.236;5.712;2024-02-26T08:19:42;32.17;;;12.20;;
18259;SDS011;9256;52.236;5.712;2024-02-26T08:22:10;32.63;;;12.27;;
18259;SDS011;9256;52.236;5.712;2024-02-26T08:24:41;30.20;;;11.80;;
18259;SDS011;9256;52.236;5.712;2024-02-26T08:27:08;31.60;;;12.20;;
18259;SDS011;9256;52.236;5.712;2024-02-26T08:29:35;29.47;;;10.87;;
18259;SDS011;9256;52.236;5.712;2024-02-26T08:32:02;28.47;;;10.73;;
18259;SDS011;9256;52.236;5.712;2024-02-26T08:34:30;29.73;;;11.00;;
18259;SDS011;9256;52.236;5.712;2024-02-26T08:36:57;30.95;;;13.70;;
18259;SDS011;9256;52.236;5.712;2024-02-26T08:39:25;25.13;;;11.00;;
18259;SDS011;9256;52.236;5.712;2024-02-26T08:41:52;27.67;;;10.83;;
18259;SDS011;9256;52.236;5.712;2024-02-26T08:44:19;24.57;;;10.00;;
18259;SDS011;9256;52.236;5.712;2024-02-26T08:46:46;26.83;;;10.47;;
18259;SDS011;9256;52.236;5.712;2024-02-26T08:49:13;27.47;;;10.37;;
18259;SDS011;9256;52.236;5.712;2024-02-26T08:51:41;28.27;;;10.27;;
18259;SDS011;9256;52.236;5.712;2024-02-26T08:54:08;23.77;;;9.77;;
18259;SDS011;9256;52.236;5.712;2024-02-26T08:56:37;23.87;;;9.53;;
18259;SDS011;9256;52.236;5.712;2024-02-26T08:59:04;25.70;;;9.80;;
18259;SDS011;9256;52.236;5.712;2024-02-26T09:01:33;28.93;;;9.50;;
18259;SDS011;9256;52.236;5.712;2024-02-26T09:04:00;26.70;;;10.43;;
18259;SDS011;9256;52.236;5.712;2024-02-26T09:06:27;23.07;;;8.73;;
18259;SDS011;9256;52.236;5.712;2024-02-26T09:08:54;25.23;;;9.20;;
18259;SDS011;9256;52.236;5.712;2024-02-26T09:11:21;21.90;;;8.23;;
18259;SDS011;9256;52.236;5.712;2024-02-26T09:13:50;21.97;;;8.57;;
18259;SDS011;9256;52.236;5.712;2024-02-26T09:16:16;26.17;;;9.17;;
18259;SDS011;9256;52.236;5.712;2024-02-26T09:18:43;22.20;;;9.17;;
18259;SDS011;9256;52.236;5.712;2024-02-26T09:21:10;22.63;;;8.60;;
18259;SDS011;9256;52.236;5.712;2024-02-26T09:23:37;18.17;;;7.87;;
18259;SDS011;9256;52.236;5.712;2024-02-26T09:26:10;23.83;;;8.63;;
18259;SDS011;9256;52.236;5.712;2024-02-26T09:28:37;19.67;;;8.33;;
18259;SDS011;9256;52.236;5.712;2024-02-26T09:31:05;20.30;;;8.00;;
18259;SDS011;9256;52.236;5.712;2024-02-26T09:33:33;18.00;;;7.83;;
18259;SDS011;9256;52.236;5.712;2024-02-26T09:36:00;20.23;;;8.07;;
18259;SDS011;9256;52.236;5.712;2024-02-26T09:38:27;19.40;;;7.67;;
18259;SDS011;9256;52.236;5.712;2024-02-26T09:40:55;23.07;;;7.97;;
18259;SDS011;9256;52.236;5.712;2024-02-26T09:43:24;20.00;;;8.07;;
18259;SDS011;9256;52.236;5.712;2024-02-26T09:45:54;21.27;;;7.60;;
18259;SDS011;9256;52.236;5.712;2024-02-26T09:48:23;22.73;;;7.57;;
18259;SDS011;9256;52.236;5.712;2024-02-26T09:50:50;21.23;;;8.85;;
18259;SDS011;9256;52.236;5.712;2024-02-26T09:53:19;23.15;;;8.70;;
18259;SDS011;9256;52.236;5.712;2024-02-26T09:55:48;22.73;;;8.33;;
18259;SDS011;9256;52.236;5.712;2024-02-26T09:58:15;21.37;;;8.63;;
18259;SDS011;9256;52.236;5.712;2024-02-26T10:00:45;21.27;;;8.10;;
18259;SDS011;9256;52.236;5.712;2024-02-26T10:03:17;22.77;;;8.47;;
18259;SDS011;9256;52.236;5.712;2024-02-26T10:05:49;19.60;;;8.23;;
18259;SDS011;9256;52.236;5.712;2024-02-26T10:08:20;16.77;;;7.17;;
18259;SDS011;9256;52.236;5.712;2024-02-26T10:10:50;21.83;;;7.63;;
18259;SDS011;9256;52.236;5.712;2024-02-26T10:13:18;25.35;;;10.50;;
18259;SDS011;9256;52.236;5.712;2024-02-26T10:15:45;20.20;;;8.83;;
18259;SDS011;9256;52.236;5.712;2024-02-26T10:18:14;21.27;;;7.60;;
18259;SDS011;9256;52.236;5.712;2024-02-26T10:20:41;18.75;;;9.10;;
18259;SDS011;9256;52.236;5.712;2024-02-26T10:23:25;16.52;;;7.22;;
18259;SDS011;9256;52.236;5.712;2024-02-26T10:25:52;16.03;;;6.97;;
18259;SDS011;9256;52.236;5.712;2024-02-26T10:28:24;16.77;;;7.07;;
18259;SDS011;9256;52.236;5.712;2024-02-26T10:30:51;14.30;;;6.27;;
18259;SDS011;9256;52.236;5.712;2024-02-26T10:33:18;17.40;;;6.73;;
18259;SDS011;9256;52.236;5.712;2024-02-26T10:35:46;16.77;;;7.03;;
18259;SDS011;9256;52.236;5.712;2024-02-26T10:38:14;18.67;;;6.63;;
18259;SDS011;9256;52.236;5.712;2024-02-26T10:40:47;16.27;;;6.40;;
18259;SDS011;9256;52.236;5.712;2024-02-26T10:43:15;16.47;;;6.63;;
18259;SDS011;9256;52.236;5.712;2024-02-26T10:45:43;15.67;;;6.23;;
18259;SDS011;9256;52.236;5.712;2024-02-26T10:48:14;15.93;;;6.43;;
18259;SDS011;9256;52.236;5.712;2024-02-26T10:50:42;15.97;;;6.50;;
18259;SDS011;9256;52.236;5.712;2024-02-26T10:53:12;16.33;;;6.63;;
18259;SDS011;9256;52.236;5.712;2024-02-26T10:55:42;17.70;;;6.80;;
18259;SDS011;9256;52.236;5.712;2024-02-26T10:58:13;16.77;;;7.30;;
18259;SDS011;9256;52.236;5.712;2024-02-26T11:00:43;16.67;;;6.60;;
18259;SDS011;9256;52.236;5.712;2024-02-26T11:03:12;19.40;;;7.20;;
18259;SDS011;9256;52.236;5.712;2024-02-26T11:05:42;16.23;;;6.50;;
18259;SDS011;9256;52.236;5.712;2024-02-26T11:08:10;18.50;;;6.90;;
18259;SDS011;9256;52.236;5.712;2024-02-26T11:10:39;17.57;;;6.93;;
18259;SDS011;9256;52.236;5.712;2024-02-26T11:13:07;18.47;;;7.43;;
18259;SDS011;9256;52.236;5.712;2024-02-26T11:15:38;34.00;;;15.53;;
18259;SDS011;9256;52.236;5.712;2024-02-26T11:18:06;31.83;;;14.67;;
18259;SDS011;9256;52.236;5.712;2024-02-26T11:20:34;19.00;;;7.50;;
18259;SDS011;9256;52.236;5.712;2024-02-26T11:23:06;21.13;;;8.57;;
18259;SDS011;9256;52.236;5.712;2024-02-26T11:25:34;27.60;;;11.13;;
18259;SDS011;9256;52.236;5.712;2024-02-26T11:28:04;28.40;;;12.50;;
18259;SDS011;9256;52.236;5.712;2024-02-26T11:30:34;21.53;;;8.47;;
18259;SDS011;9256;52.236;5.712;2024-02-26T11:33:06;25.58;;;12.20;;
18259;SDS011;9256;52.236;5.712;2024-02-26T11:35:34;20.43;;;8.80;;
18259;SDS011;9256;52.236;5.712;2024-02-26T11:38:03;21.97;;;8.80;;
18259;SDS011;9256;52.236;5.712;2024-02-26T11:40:31;21.57;;;8.67;;
18259;SDS011;9256;52.236;5.712;2024-02-26T11:42:59;25.53;;;10.17;;
18259;SDS011;9256;52.236;5.712;2024-02-26T11:48:20;25.52;;;11.27;;
18259;SDS011;9256;52.236;5.712;2024-02-26T11:50:49;21.23;;;9.37;;
18259;SDS011;9256;52.236;5.712;2024-02-26T11:53:21;22.23;;;8.30;;
18259;SDS011;9256;52.236;5.712;2024-02-26T11:58:46;26.57;;;10.60;;
18259;SDS011;9256;52.236;5.712;2024-02-26T12:04:06;34.80;;;14.97;;
18259;SDS011;9256;52.236;5.712;2024-02-26T12:06:40;20.97;;;8.57;;
18259;SDS011;9256;52.236;5.712;2024-02-26T12:12:00;123.07;;;45.00;;
18259;SDS011;9256;52.236;5.712;2024-02-26T12:14:28;70.07;;;26.87;;
18259;SDS011;9256;52.236;5.712;2024-02-26T12:16:56;44.00;;;15.93;;
18259;SDS011;9256;52.236;5.712;2024-02-26T12:19:24;57.07;;;25.00;;
18259;SDS011;9256;52.236;5.712;2024-02-26T12:21:51;47.10;;;21.07;;
18259;SDS011;9256;52.236;5.712;2024-02-26T12:24:20;23.43;;;9.00;;
18259;SDS011;9256;52.236;5.712;2024-02-26T12:26:47;31.50;;;17.07;;
18259;SDS011;9256;52.236;5.712;2024-02-26T12:29:14;24.33;;;11.13;;
18259;SDS011;9256;52.236;5.712;2024-02-26T12:31:41;22.77;;;10.07;;
18259;SDS011;9256;52.236;5.712;2024-02-26T12:34:10;22.33;;;10.30;;
18259;SDS011;9256;52.236;5.712;2024-02-26T12:36:39;27.00;;;10.90;;
18259;SDS011;9256;52.236;5.712;2024-02-26T12:39:05;17.63;;;7.63;;
18259;SDS011;9256;52.236;5.712;2024-02-26T12:41:34;20.17;;;7.97;;
18259;SDS011;9256;52.236;5.712;2024-02-26T12:44:04;21.43;;;8.67;;
18259;SDS011;9256;52.236;5.712;2024-02-26T12:46:32;18.17;;;8.10;;
18259;SDS011;9256;52.236;5.712;2024-02-26T12:48:59;19.30;;;8.07;;
18259;SDS011;9256;52.236;5.712;2024-02-26T12:51:28;17.30;;;7.20;;
18259;SDS011;9256;52.236;5.712;2024-02-26T12:53:56;19.60;;;8.73;;
18259;SDS011;9256;52.236;5.712;2024-02-26T12:56:24;19.43;;;8.53;;
18259;SDS011;9256;52.236;5.712;2024-02-26T12:58:54;29.57;;;14.13;;
18259;SDS011;9256;52.236;5.712;2024-02-26T13:01:22;59.27;;;26.50;;
18259;SDS011;9256;52.236;5.712;2024-02-26T13:03:51;56.57;;;28.23;;
18259;SDS011;9256;52.236;5.712;2024-02-26T13:06:20;50.53;;;28.00;;
18259;SDS011;9256;52.236;5.712;2024-02-26T13:08:49;20.17;;;9.60;;
18259;SDS011;9256;52.236;5.712;2024-02-26T13:11:23;22.63;;;10.13;;
18259;SDS011;9256;52.236;5.712;2024-02-26T13:13:50;19.57;;;8.57;;
18259;SDS011;9256;52.236;5.712;2024-02-26T13:16:17;20.57;;;9.17;;
18259;SDS011;9256;52.236;5.712;2024-02-26T13:18:44;17.33;;;7.60;;
18259;SDS011;9256;52.236;5.712;2024-02-26T13:21:12;20.97;;;9.50;;
18259;SDS011;9256;52.236;5.712;2024-02-26T13:23:42;23.27;;;12.07;;
18259;SDS011;9256;52.236;5.712;2024-02-26T13:26:12;23.93;;;10.90;;
18259;SDS011;9256;52.236;5.712;2024-02-26T13:28:40;38.13;;;18.53;;
18259;SDS011;9256;52.236;5.712;2024-02-26T13:31:07;74.63;;;34.03;;
18259;SDS011;9256;52.236;5.712;2024-02-26T13:33:35;97.07;;;41.30;;
18259;SDS011;9256;52.236;5.712;2024-02-26T13:36:03;191.50;;;74.23;;
18259;SDS011;9256;52.236;5.712;2024-02-26T13:38:31;186.47;;;95.13;;
18259;SDS011;9256;52.236;5.712;2024-02-26T13:40:58;46.83;;;25.33;;
18259;SDS011;9256;52.236;5.712;2024-02-26T13:43:26;46.73;;;29.97;;
18259;SDS011;9256;52.236;5.712;2024-02-26T13:45:53;28.47;;;17.50;;
18259;SDS011;9256;52.236;5.712;2024-02-26T13:48:21;24.57;;;14.47;;
18259;SDS011;9256;52.236;5.712;2024-02-26T13:50:48;18.70;;;7.77;;
18259;SDS011;9256;52.236;5.712;2024-02-26T13:53:16;20.20;;;10.00;;
18259;SDS011;9256;52.236;5.712;2024-02-26T13:55:43;46.30;;;24.00;;
18259;SDS011;9256;52.236;5.712;2024-02-26T13:58:11;131.83;;;56.70;;
18259;SDS011;9256;52.236;5.712;2024-02-26T14:00:41;306.97;;;121.93;;
18259;SDS011;9256;52.236;5.712;2024-02-26T14:03:08;55.93;;;29.73;;
18259;SDS011;9256;52.236;5.712;2024-02-26T14:05:35;55.37;;;28.77;;
18259;SDS011;9256;52.236;5.712;2024-02-26T14:08:02;44.87;;;24.83;;
18259;SDS011;9256;52.236;5.712;2024-02-26T14:10:29;28.63;;;15.23;;
18259;SDS011;9256;52.236;5.712;2024-02-26T14:12:57;18.07;;;7.37;;
18259;SDS011;9256;52.236;5.712;2024-02-26T14:15:24;29.77;;;11.80;;
18259;SDS011;9256;52.236;5.712;2024-02-26T14:17:52;24.67;;;12.37;;
18259;SDS011;9256;52.236;5.712;2024-02-26T14:20:21;19.03;;;8.37;;
18259;SDS011;9256;52.236;5.712;2024-02-26T14:22:48;17.30;;;7.47;;
18259;SDS011;9256;52.236;5.712;2024-02-26T14:25:16;22.92;;;11.93;;
18259;SDS011;9256;52.236;5.712;2024-02-26T14:27:43;14.77;;;6.93;;
18259;SDS011;9256;52.236;5.712;2024-02-26T14:30:10;18.73;;;7.70;;
18259;SDS011;9256;52.236;5.712;2024-02-26T14:32:37;13.60;;;6.13;;
18259;SDS011;9256;52.236;5.712;2024-02-26T14:35:07;18.57;;;7.90;;
18259;SDS011;9256;52.236;5.712;2024-02-26T14:37:35;50.80;;;20.03;;
18259;SDS011;9256;52.236;5.712;2024-02-26T14:40:02;132.80;;;44.43;;
18259;SDS011;9256;52.236;5.712;2024-02-26T14:42:30;112.45;;;55.35;;
18259;SDS011;9256;52.236;5.712;2024-02-26T14:44:57;109.40;;;46.70;;
18259;SDS011;9256;52.236;5.712;2024-02-26T14:47:24;186.70;;;76.00;;
18259;SDS011;9256;52.236;5.712;2024-02-26T14:49:51;254.37;;;119.70;;
18259;SDS011;9256;52.236;5.712;2024-02-26T14:52:20;55.53;;;28.70;;
18259;SDS011;9256;52.236;5.712;2024-02-26T14:54:46;24.43;;;13.87;;